ヘルシンキ/ヴァンター の空港の天気 - METARとTAF

ヘルシンキ・ヴァンター国際空港 ( EFHK / HEL ) - フィンランド ヴァンター
飛行場実況気象(Metar)
観測時間05/26 02:20 EEST (05/25 23:20 UTC)
風向・風速北西 3m/s
視程10km以上
天気現象
なし
気温10℃
湿度76%
気圧1028hPa
METAREFHK 252320Z 31006KT CAVOK 10/06 Q1028 NOSIG
過去の天気等 Google飛行場航空写真 Wunderground天気予報

過去48時間のMETAR

飛行場予報(TAF)
発表時間: 5/26 02:22 EEST (5/25 23:22 UTC)
予報対象時間: 26日3時 EEST ~ 27日3時 EEST
風向・風速北西 3m/s
視程10km以上
なし
TAF EFHK 252322Z 2600/2624 31006KT CAVOK